createdAt,value
2018-03-20T10:51:43.516Z,174.38
2018-03-20T10:52:43.116Z,174.38
2018-03-20T10:54:36.227Z,174.38
2018-03-20T10:55:36.176Z,174.38
2018-03-20T10:57:29.303Z,174.38
2018-03-20T10:58:29.235Z,174.38
2018-03-20T11:00:22.406Z,168.75
2018-03-20T11:01:22.305Z,168.75
2018-03-20T11:03:15.411Z,168.75
2018-03-20T11:04:15.350Z,168.75
2018-03-20T11:06:08.471Z,168.75
2018-03-20T11:07:08.405Z,168.75
2018-03-20T11:09:01.526Z,168.75
2018-03-20T11:10:01.475Z,168.75
2018-03-20T11:11:55.298Z,168.75
2018-03-20T11:12:54.543Z,174.38
2018-03-20T11:14:47.724Z,168.75
2018-03-20T11:15:47.647Z,168.75
2018-03-20T11:17:40.799Z,163.13
2018-03-20T11:18:40.724Z,168.75
2018-03-20T11:20:33.812Z,163.13
2018-03-20T11:21:33.765Z,168.75
2018-03-20T11:23:26.859Z,168.75
2018-03-20T11:24:26.820Z,163.13
2018-03-20T11:26:19.945Z,163.13
2018-03-20T11:27:19.907Z,163.13
2018-03-20T11:29:12.989Z,168.75
2018-03-20T11:30:12.932Z,163.13
2018-03-20T11:32:06.081Z,168.75
2018-03-20T11:33:05.992Z,163.13
2018-03-20T11:35:00.628Z,163.13
2018-03-20T11:36:00.560Z,163.13
2018-03-20T11:37:53.715Z,163.13
2018-03-20T11:38:53.657Z,163.13
2018-03-20T11:40:46.779Z,163.13
2018-03-20T11:41:46.683Z,163.13
2018-03-20T11:43:40.159Z,163.13
2018-03-20T11:44:39.762Z,163.13
2018-03-20T11:46:32.853Z,163.13
2018-03-20T11:47:32.810Z,163.13
2018-03-20T11:49:25.897Z,163.13
2018-03-20T11:50:25.857Z,157.50
2018-03-20T11:52:34.811Z,163.13
2018-03-20T11:53:34.758Z,163.13
2018-03-20T11:55:27.863Z,163.13
2018-03-20T11:56:27.801Z,163.13
2018-03-20T11:58:20.852Z,157.50
2018-03-20T11:59:20.809Z,157.50
2018-03-20T12:01:13.917Z,157.50
2018-03-20T12:02:13.871Z,163.13
2018-03-20T12:04:06.978Z,157.50
2018-03-20T12:05:06.914Z,157.50
2018-03-20T12:07:00.039Z,157.50
2018-03-20T12:07:59.983Z,157.50
2018-03-20T12:09:53.088Z,157.50
2018-03-20T12:10:53.030Z,157.50
2018-03-20T12:12:47.621Z,157.50
2018-03-20T12:13:47.582Z,157.50
2018-03-20T12:15:40.729Z,157.50
2018-03-20T12:16:40.699Z,157.50
2018-03-20T12:18:33.817Z,157.50
2018-03-20T12:19:33.744Z,151.88
2018-03-20T12:21:26.811Z,151.88
2018-03-20T12:22:26.744Z,151.88
2018-03-20T12:24:19.846Z,151.88
2018-03-20T12:25:20.041Z,151.88
2018-03-20T12:27:12.901Z,151.88
2018-03-20T12:28:12.836Z,157.50
2018-03-20T12:30:05.971Z,151.88
2018-03-20T12:31:05.928Z,151.88
2018-03-20T12:32:59.872Z,151.88
2018-03-20T12:33:59.810Z,151.88
2018-03-20T12:35:52.960Z,151.88
2018-03-20T12:36:52.907Z,151.88
2018-03-20T12:38:46.059Z,151.88
2018-03-20T12:39:45.970Z,151.88
2018-03-20T12:41:39.077Z,151.88
2018-03-20T12:42:39.024Z,151.88
2018-03-20T12:44:33.971Z,146.25
2018-03-20T12:45:33.578Z,151.88
2018-03-20T12:47:27.043Z,146.25
2018-03-20T12:48:26.670Z,151.88
2018-03-20T12:50:19.825Z,151.88
2018-03-20T12:51:19.704Z,146.25
2018-03-20T12:53:12.851Z,146.25
2018-03-20T12:54:12.767Z,146.25
2018-03-20T12:56:05.895Z,146.25
2018-03-20T12:57:05.820Z,151.88
2018-03-20T12:58:58.952Z,151.88
2018-03-20T12:59:58.888Z,146.25
2018-03-20T13:01:51.980Z,146.25
2018-03-20T13:02:51.928Z,146.25
2018-03-20T13:04:45.092Z,146.25
2018-03-20T13:05:44.987Z,146.25
2018-03-20T13:07:38.122Z,151.88
2018-03-20T13:08:38.056Z,146.25
2018-03-20T13:10:32.649Z,146.25
2018-03-20T13:11:32.595Z,146.25
2018-03-20T13:13:25.661Z,146.25
2018-03-20T13:14:25.608Z,146.25
2018-03-20T13:16:19.082Z,140.63
2018-03-20T13:17:18.936Z,146.25
2018-03-20T13:19:11.786Z,146.25
2018-03-20T13:20:11.717Z,146.25
2018-03-20T13:22:04.923Z,146.25
2018-03-20T13:23:04.766Z,146.25
2018-03-20T13:24:57.897Z,146.25
2018-03-20T13:25:57.832Z,146.25
2018-03-20T13:27:51.012Z,146.25
2018-03-20T13:28:50.902Z,140.63
2018-03-20T13:30:44.021Z,146.25
2018-03-20T13:31:43.948Z,146.25
2018-03-20T13:33:37.069Z,146.25
2018-03-20T13:34:37.043Z,140.63
2018-03-20T13:36:30.089Z,140.63
2018-03-20T13:37:30.054Z,146.25
2018-03-20T13:39:24.714Z,146.25
2018-03-20T13:40:24.618Z,140.63
2018-03-20T13:42:17.763Z,140.63
2018-03-20T13:43:17.724Z,140.63
2018-03-20T13:45:10.848Z,140.63
2018-03-20T13:46:10.757Z,140.63
2018-03-20T13:48:03.871Z,146.25
2018-03-20T13:49:03.815Z,146.25
2018-03-20T13:50:58.678Z,140.63
2018-03-20T13:51:56.880Z,140.63
2018-03-20T13:53:49.950Z,140.63
2018-03-20T13:54:49.900Z,146.25
2018-03-20T13:56:44.643Z,140.63
2018-03-20T13:57:44.582Z,146.25
2018-03-20T13:59:37.719Z,146.25
2018-03-20T14:00:37.698Z,140.63
2018-03-20T14:02:30.831Z,140.63
2018-03-20T14:03:30.737Z,140.63
2018-03-20T14:05:23.854Z,140.63
2018-03-20T14:06:23.812Z,146.25
2018-03-20T14:08:16.921Z,140.63
2018-03-20T14:09:16.847Z,140.63
2018-03-20T14:11:10.086Z,140.63
2018-03-20T14:12:09.918Z,140.63
2018-03-20T14:14:03.025Z,140.63
2018-03-20T14:15:02.975Z,135.00
2018-03-20T14:16:56.072Z,140.63
2018-03-20T14:17:56.021Z,140.63
2018-03-20T14:19:49.145Z,135.00
2018-03-20T14:20:49.082Z,135.00
2018-03-20T14:22:43.039Z,140.63
2018-03-20T14:23:42.964Z,135.00
2018-03-20T14:25:36.058Z,140.63
2018-03-20T14:26:36.014Z,135.00
2018-03-20T14:28:29.157Z,135.00
2018-03-20T14:29:29.068Z,135.00
2018-03-20T14:31:23.671Z,135.00
2018-03-20T14:32:23.623Z,135.00
2018-03-20T14:34:31.519Z,135.00
2018-03-20T14:35:31.476Z,135.00
2018-03-20T14:37:24.577Z,135.00
2018-03-20T14:38:24.802Z,135.00
2018-03-20T14:40:17.703Z,129.38
2018-03-20T14:41:17.646Z,135.00
2018-03-20T14:43:10.861Z,129.38
2018-03-20T14:44:10.819Z,129.38
2018-03-20T14:46:03.912Z,129.38
2018-03-20T14:47:03.857Z,129.38
2018-03-20T14:48:57.126Z,129.38
2018-03-20T14:49:57.011Z,129.38
2018-03-20T14:51:50.231Z,135.00
2018-03-20T14:52:50.185Z,129.38
2018-03-20T14:54:43.399Z,129.38
2018-03-20T14:55:43.338Z,135.00
2018-03-20T14:57:36.453Z,135.00
2018-03-20T14:58:36.391Z,129.38
2018-03-20T15:00:29.912Z,129.38
2018-03-20T15:01:30.129Z,129.38
2018-03-20T15:03:22.779Z,129.38
2018-03-20T15:04:22.779Z,129.38
2018-03-20T15:06:15.963Z,129.38
2018-03-20T15:07:15.875Z,129.38
2018-03-20T15:09:09.010Z,129.38
2018-03-20T15:10:09.042Z,129.38
2018-03-20T15:12:02.420Z,123.75
2018-03-20T15:13:01.996Z,129.38
2018-03-20T15:14:55.135Z,129.38
2018-03-20T15:15:55.037Z,129.38
2018-03-20T15:17:49.679Z,129.38
2018-03-20T15:18:49.642Z,123.75
2018-03-20T15:20:42.748Z,129.38
2018-03-20T15:21:42.688Z,123.75
2018-03-20T15:23:35.963Z,123.75
2018-03-20T15:24:35.875Z,123.75
2018-03-20T15:26:29.070Z,123.75
2018-03-20T15:27:29.019Z,123.75
2018-03-20T15:29:22.458Z,123.75
2018-03-20T15:30:22.177Z,123.75
2018-03-20T15:32:15.664Z,123.75
2018-03-20T15:33:15.279Z,123.75
2018-03-20T15:35:10.883Z,123.75
2018-03-20T15:36:10.659Z,118.13
2018-03-20T15:38:31.153Z,118.13
2018-03-20T15:39:31.074Z,118.13
2018-03-20T15:41:24.253Z,118.13
2018-03-20T15:42:24.200Z,118.13
2018-03-20T15:44:17.908Z,118.13
2018-03-20T15:45:17.866Z,118.13
2018-03-20T15:47:11.069Z,118.13
2018-03-20T15:48:11.026Z,118.13
2018-03-20T15:50:04.292Z,112.50
2018-03-20T15:51:04.202Z,112.50
2018-03-20T15:52:57.419Z,112.50
2018-03-20T15:53:57.351Z,112.50
2018-03-20T15:55:50.459Z,112.50
2018-03-20T15:56:50.398Z,112.50
2018-03-20T15:58:43.498Z,112.50
2018-03-20T15:59:43.460Z,112.50
2018-03-20T16:01:36.555Z,106.88
2018-03-20T16:02:36.521Z,106.88
2018-03-20T16:04:41.411Z,106.88
2018-03-20T16:05:41.414Z,106.88
2018-03-20T16:07:34.636Z,106.88
2018-03-20T16:08:34.519Z,106.88
2018-03-20T16:10:27.721Z,101.25
2018-03-20T16:11:27.688Z,106.88
2018-03-20T16:13:20.919Z,101.25
2018-03-20T16:14:20.884Z,101.25
2018-03-20T16:16:14.080Z,101.25
2018-03-20T16:17:13.990Z,95.63
2018-03-20T16:19:07.492Z,95.63
2018-03-20T16:20:07.154Z,95.63
2018-03-20T16:22:00.614Z,95.63
2018-03-20T16:23:00.325Z,95.63
2018-03-20T16:24:53.824Z,95.63
2018-03-20T16:25:53.510Z,95.63
2018-03-20T16:27:46.668Z,90.00
2018-03-20T16:28:46.653Z,90.00
2018-03-20T16:30:39.847Z,90.00
2018-03-20T16:31:39.788Z,90.00
2018-03-20T16:33:33.112Z,84.38
2018-03-20T16:34:33.055Z,84.38
2018-03-20T16:36:26.256Z,84.38
2018-03-20T16:37:26.199Z,84.38
2018-03-20T16:39:19.437Z,84.38
2018-03-20T16:40:19.510Z,84.38
2018-03-20T16:42:12.488Z,78.75
2018-03-20T16:43:12.425Z,78.75
2018-03-20T16:45:05.709Z,78.75
2018-03-20T16:46:05.588Z,73.13
2018-03-20T16:47:58.796Z,73.13
2018-03-20T16:48:58.754Z,73.13
2018-03-20T16:50:51.940Z,73.13
2018-03-20T16:51:51.897Z,67.50
2018-03-20T16:53:45.343Z,67.50
2018-03-20T16:54:45.068Z,61.88
2018-03-20T16:56:38.386Z,61.88
2018-03-20T16:57:38.318Z,61.88
2018-03-20T16:59:31.808Z,61.88
2018-03-20T17:00:31.478Z,56.25
2018-03-20T17:02:24.695Z,56.25
2018-03-20T17:03:24.637Z,56.25
2018-03-20T17:05:17.853Z,50.63
2018-03-20T17:06:17.800Z,50.63
2018-03-20T17:08:11.019Z,50.63
2018-03-20T17:09:10.961Z,45.00
2018-03-20T17:11:04.269Z,45.00
2018-03-20T17:12:04.241Z,45.00
2018-03-20T17:13:57.429Z,39.38
2018-03-20T17:14:57.439Z,39.38
2018-03-20T17:16:50.614Z,33.75
2018-03-20T17:17:50.546Z,33.75
2018-03-20T17:19:44.518Z,33.75
2018-03-20T17:20:43.703Z,28.13
2018-03-20T17:22:37.105Z,28.13
2018-03-20T17:23:37.069Z,28.13
2018-03-20T17:25:30.414Z,22.50
2018-03-20T17:26:30.348Z,22.50
2018-03-20T17:28:23.435Z,22.50
2018-03-20T17:29:23.396Z,16.88
2018-03-20T17:31:16.501Z,16.88
2018-03-20T17:32:16.459Z,16.88
2018-03-20T17:34:09.786Z,11.25
2018-03-20T17:35:09.703Z,11.25
2018-03-20T17:37:02.935Z,11.25
2018-03-20T17:38:02.871Z,5.63
2018-03-20T17:39:56.186Z,5.63
2018-03-20T17:40:56.088Z,5.63
2018-03-20T17:42:49.158Z,5.63
2018-03-20T17:43:49.129Z,5.63
2018-03-20T17:45:42.583Z,0.00
2018-03-20T17:46:42.241Z,0.00
2018-03-20T17:48:35.441Z,0.00
2018-03-20T17:49:35.390Z,0.00
2018-03-20T17:51:43.889Z,0.00
2018-03-20T17:52:43.828Z,0.00
2018-03-20T17:54:37.132Z,0.00
2018-03-20T17:55:37.091Z,0.00
2018-03-20T17:57:30.193Z,0.00
2018-03-20T17:58:30.150Z,0.00
2018-03-20T18:00:23.321Z,0.00
2018-03-20T18:01:23.238Z,0.00
2018-03-20T18:03:16.403Z,0.00
2018-03-20T18:04:16.342Z,0.00
2018-03-20T18:06:09.551Z,0.00
2018-03-20T18:07:09.507Z,0.00
2018-03-20T18:09:02.745Z,0.00
2018-03-20T18:10:02.664Z,0.00
2018-03-20T18:11:55.765Z,0.00
2018-03-20T18:12:55.722Z,0.00
2018-03-20T18:14:49.160Z,0.00
2018-03-20T18:15:48.921Z,0.00
2018-03-20T18:17:41.998Z,0.00
2018-03-20T18:18:41.985Z,0.00
2018-03-20T18:20:35.184Z,0.00
2018-03-20T18:21:35.108Z,0.00
2018-03-20T18:23:28.214Z,0.00
2018-03-20T18:24:28.152Z,0.00
2018-03-20T18:26:35.794Z,0.00
2018-03-20T18:27:35.757Z,0.00
2018-03-20T18:29:28.852Z,0.00
2018-03-20T18:30:28.824Z,0.00
2018-03-20T18:32:21.909Z,0.00
2018-03-20T18:33:21.864Z,0.00
2018-03-20T18:35:15.341Z,0.00
2018-03-20T18:36:14.925Z,0.00
2018-03-20T18:38:08.024Z,0.00
2018-03-20T18:39:07.976Z,0.00
2018-03-20T18:41:01.279Z,0.00
2018-03-20T18:42:01.240Z,0.00
2018-03-20T18:43:54.463Z,0.00
2018-03-20T18:44:54.426Z,0.00
2018-03-20T18:46:47.667Z,0.00
2018-03-20T18:47:47.569Z,0.00
2018-03-20T18:49:40.783Z,0.00
2018-03-20T18:50:40.758Z,0.00
2018-03-20T18:52:34.189Z,0.00
2018-03-20T18:53:33.875Z,0.00
2018-03-20T18:55:27.098Z,0.00
2018-03-20T18:56:27.038Z,0.00
2018-03-20T18:58:20.260Z,0.00
2018-03-20T18:59:20.223Z,0.00
2018-03-20T19:01:13.425Z,0.00
2018-03-20T19:02:13.365Z,0.00
2018-03-20T19:04:06.828Z,0.00
2018-03-20T19:05:06.514Z,0.00
2018-03-20T19:06:59.716Z,0.00
2018-03-20T19:07:59.680Z,0.00
2018-03-20T19:09:52.799Z,0.00
2018-03-20T19:10:52.778Z,0.00
2018-03-20T19:12:45.955Z,0.00
2018-03-20T19:14:59.560Z,0.00
2018-03-20T19:15:59.112Z,0.00
2018-03-20T19:17:52.343Z,0.00
2018-03-20T19:18:52.284Z,0.00
2018-03-20T19:20:45.386Z,0.00
2018-03-20T19:21:45.341Z,0.00
2018-03-20T19:23:38.465Z,0.00
2018-03-20T19:24:38.409Z,0.00
2018-03-20T19:26:31.486Z,0.00
2018-03-20T19:27:31.443Z,0.00
2018-03-20T19:29:24.564Z,0.00
2018-03-20T19:30:24.521Z,0.00
2018-03-20T19:32:17.628Z,0.00
2018-03-20T19:33:17.585Z,0.00
2018-03-20T19:35:11.048Z,0.00
2018-03-20T19:36:10.591Z,0.00
2018-03-20T19:38:04.057Z,0.00
2018-03-20T19:39:03.698Z,0.00
2018-03-20T19:40:57.175Z,0.00
2018-03-20T19:41:56.784Z,0.00
2018-03-20T19:43:49.880Z,0.00
2018-03-20T19:44:49.806Z,0.00
2018-03-20T19:46:44.397Z,0.00
2018-03-20T19:47:44.351Z,0.00
2018-03-20T19:49:37.408Z,0.00
2018-03-20T19:50:37.356Z,0.00
2018-03-20T19:52:30.429Z,0.00
2018-03-20T19:53:30.381Z,0.00
2018-03-20T19:55:23.462Z,0.00
2018-03-20T19:56:23.423Z,0.00
2018-03-20T19:58:16.505Z,0.00
2018-03-20T19:59:16.459Z,0.00
2018-03-20T20:01:09.550Z,0.00
2018-03-20T20:02:09.487Z,0.00
2018-03-20T20:04:02.580Z,0.00
2018-03-20T20:05:02.535Z,0.00
2018-03-20T20:06:55.634Z,0.00
2018-03-20T20:07:55.587Z,0.00
2018-03-20T20:09:48.705Z,0.00
2018-03-20T20:10:48.640Z,0.00
2018-03-20T20:12:41.754Z,0.00
2018-03-20T20:13:41.690Z,0.00
2018-03-20T20:15:34.806Z,0.00
2018-03-20T20:16:34.756Z,0.00
2018-03-20T20:18:28.359Z,0.00
2018-03-20T20:19:28.314Z,0.00
2018-03-20T20:21:21.426Z,0.00
2018-03-20T20:22:21.379Z,0.00
2018-03-20T20:24:14.516Z,0.00
2018-03-20T20:25:14.440Z,0.00
2018-03-20T20:27:07.534Z,0.00
2018-03-20T20:28:07.585Z,0.00
2018-03-20T20:30:00.571Z,0.00
2018-03-20T20:31:00.518Z,0.00
2018-03-20T20:32:53.594Z,0.00
2018-03-20T20:33:53.545Z,0.00
2018-03-20T20:35:46.617Z,0.00
2018-03-20T20:36:46.561Z,0.00
2018-03-20T20:38:39.628Z,0.00
2018-03-20T20:39:39.598Z,0.00
2018-03-20T20:41:33.044Z,0.00
2018-03-20T20:42:32.590Z,0.00
2018-03-20T20:44:26.006Z,0.00
2018-03-20T20:45:25.572Z,0.00
2018-03-20T20:47:18.673Z,0.00
2018-03-20T20:48:18.606Z,0.00
2018-03-20T20:50:11.662Z,0.00
2018-03-20T20:51:11.631Z,0.00
2018-03-20T20:53:04.710Z,0.00
2018-03-20T20:54:04.626Z,0.00
2018-03-20T20:55:57.694Z,0.00
2018-03-20T20:56:57.678Z,0.00
2018-03-20T20:58:51.134Z,0.00
2018-03-20T20:59:50.664Z,0.00
2018-03-20T21:01:44.105Z,0.00
2018-03-20T21:02:43.707Z,0.00
2018-03-20T21:04:36.847Z,0.00
2018-03-20T21:05:36.746Z,0.00
2018-03-20T21:07:29.803Z,0.00
2018-03-20T21:08:29.823Z,0.00
2018-03-20T21:10:22.872Z,0.00
2018-03-20T21:11:22.794Z,0.00
2018-03-20T21:13:15.854Z,0.00
2018-03-20T21:14:15.806Z,0.00
2018-03-20T21:16:08.873Z,0.00
2018-03-20T21:17:08.808Z,0.00
2018-03-20T21:19:01.877Z,0.00
2018-03-20T21:20:01.874Z,0.00
2018-03-20T21:21:54.902Z,0.00
2018-03-20T21:22:54.817Z,0.00
2018-03-20T21:24:49.433Z,0.00
2018-03-20T21:25:49.369Z,0.00
2018-03-20T21:27:42.475Z,0.00
2018-03-20T21:28:42.425Z,0.00
2018-03-20T21:30:35.477Z,0.00
2018-03-20T21:31:35.412Z,0.00
2018-03-20T21:33:28.475Z,0.00
2018-03-20T21:34:28.396Z,0.00
2018-03-20T21:36:21.582Z,0.00
2018-03-20T21:37:21.438Z,0.00
2018-03-20T21:39:14.914Z,0.00
2018-03-20T21:40:14.501Z,0.00
2018-03-20T21:42:07.617Z,0.00
2018-03-20T21:43:07.534Z,0.00
2018-03-20T21:45:00.671Z,0.00
2018-03-20T21:46:00.599Z,0.00
2018-03-20T21:47:53.659Z,0.00
2018-03-20T21:48:53.591Z,0.00
2018-03-20T21:50:46.673Z,0.00
2018-03-20T21:51:46.595Z,0.00
2018-03-20T21:53:39.653Z,0.00
2018-03-20T21:54:39.603Z,0.00
2018-03-20T21:56:32.733Z,0.00
2018-03-20T21:57:32.656Z,0.00
2018-03-20T21:59:25.740Z,0.00
2018-03-20T22:00:25.675Z,0.00
2018-03-20T22:02:18.720Z,0.00
2018-03-20T22:03:18.673Z,0.00
2018-03-20T22:05:11.725Z,0.00
2018-03-20T22:06:11.680Z,0.00
2018-03-20T22:08:04.750Z,0.00
2018-03-20T22:09:04.681Z,0.00
2018-03-20T22:10:57.746Z,0.00
2018-03-20T22:11:57.692Z,0.00
2018-03-20T22:13:50.738Z,0.00
2018-03-20T22:14:50.692Z,0.00
2018-03-20T22:16:43.784Z,0.00
2018-03-20T22:17:43.715Z,0.00
2018-03-20T22:19:36.795Z,0.00
2018-03-20T22:20:36.746Z,0.00
2018-03-20T22:22:29.813Z,0.00
2018-03-20T22:23:29.748Z,0.00
2018-03-20T22:25:22.828Z,0.00
2018-03-20T22:26:22.778Z,0.00
2018-03-20T22:28:15.837Z,0.00
2018-03-20T22:29:15.790Z,0.00
2018-03-20T22:31:08.860Z,0.00
2018-03-20T22:32:08.823Z,0.00
2018-03-20T22:34:01.882Z,0.00
2018-03-20T22:35:01.833Z,0.00
2018-03-20T22:36:54.897Z,0.00
2018-03-20T22:37:54.838Z,0.00
2018-03-20T22:39:47.958Z,0.00
2018-03-20T22:40:47.890Z,0.00
2018-03-20T22:42:42.462Z,0.00
2018-03-20T22:43:42.397Z,0.00
2018-03-20T22:45:35.507Z,0.00
2018-03-20T22:46:35.427Z,0.00
2018-03-20T22:48:28.494Z,0.00
2018-03-20T22:49:28.451Z,0.00
2018-03-20T22:51:21.520Z,0.00
2018-03-20T22:52:21.449Z,0.00
2018-03-20T22:54:14.515Z,0.00
2018-03-20T22:55:14.464Z,0.00
2018-03-20T22:57:07.917Z,0.00
2018-03-20T22:58:07.467Z,0.00
2018-03-20T23:00:00.522Z,0.00
2018-03-20T23:01:00.487Z,0.00
2018-03-20T23:02:53.568Z,0.00
2018-03-20T23:03:53.480Z,0.00
2018-03-20T23:05:46.605Z,0.00
2018-03-20T23:06:46.486Z,0.00
2018-03-20T23:08:39.554Z,0.00
2018-03-20T23:09:39.474Z,0.00
2018-03-20T23:11:32.560Z,0.00
2018-03-20T23:12:32.496Z,0.00
2018-03-20T23:14:25.702Z,0.00
2018-03-20T23:15:25.667Z,0.00
2018-03-20T23:17:18.721Z,0.00
2018-03-20T23:18:18.653Z,0.00
2018-03-20T23:20:11.708Z,0.00
2018-03-20T23:21:11.664Z,0.00
2018-03-20T23:23:04.754Z,0.00
2018-03-20T23:24:04.651Z,0.00
2018-03-20T23:25:57.721Z,0.00
2018-03-20T23:26:57.665Z,0.00
2018-03-20T23:28:50.735Z,0.00
2018-03-20T23:29:50.666Z,0.00
2018-03-20T23:31:43.728Z,0.00
2018-03-20T23:32:43.651Z,0.00
2018-03-20T23:34:36.753Z,0.00
2018-03-20T23:35:36.671Z,0.00
2018-03-20T23:37:29.748Z,0.00
2018-03-20T23:38:29.681Z,0.00
2018-03-20T23:40:25.741Z,0.00
2018-03-20T23:41:22.693Z,0.00
2018-03-20T23:43:15.833Z,0.00
2018-03-20T23:44:15.743Z,0.00
2018-03-20T23:46:08.807Z,0.00
2018-03-20T23:47:08.760Z,0.00
2018-03-20T23:49:01.854Z,0.00
2018-03-20T23:50:01.859Z,0.00
2018-03-20T23:51:54.880Z,0.00
2018-03-20T23:52:54.804Z,0.00
2018-03-20T23:54:47.873Z,0.00
2018-03-20T23:55:47.838Z,0.00
2018-03-20T23:57:40.908Z,0.00
2018-03-20T23:58:40.837Z,0.00
